createdAt,value
2018-09-28T00:00:58.736Z,1009.7
2018-09-28T00:02:00.772Z,1009.7
2018-09-28T00:03:02.800Z,1009.7
2018-09-28T00:04:04.827Z,1009.8
2018-09-28T00:05:07.167Z,1009.8
2018-09-28T00:06:09.192Z,1009.8
2018-09-28T00:07:11.226Z,1009.7
2018-09-28T00:08:13.262Z,1009.8
2018-09-28T00:09:15.292Z,1009.8
2018-09-28T00:10:17.699Z,1009.8
2018-09-28T00:11:19.733Z,1009.8
2018-09-28T00:12:21.757Z,1009.8
2018-09-28T00:13:23.781Z,1009.9
2018-09-28T00:14:25.803Z,1010
2018-09-28T00:15:27.842Z,1009.9
2018-09-28T00:16:30.153Z,1010
2018-09-28T00:17:32.188Z,1010
2018-09-28T00:18:34.775Z,1010
2018-09-28T00:19:36.814Z,1010
2018-09-28T00:20:38.835Z,1009.8
2018-09-28T00:21:40.877Z,1010
2018-09-28T00:22:42.961Z,1010
2018-09-28T00:23:44.978Z,1010
2018-09-28T00:24:47.302Z,1009.9
2018-09-28T00:25:49.368Z,1009.9
2018-09-28T00:26:51.367Z,1009.9
2018-09-28T00:27:53.390Z,1010
2018-09-28T00:28:55.423Z,1010
2018-09-28T00:29:57.448Z,1009.9
2018-09-28T00:30:59.467Z,1009.9
2018-09-28T00:32:01.504Z,1009.9
2018-09-28T00:33:03.524Z,1009.9
2018-09-28T00:34:05.557Z,1009.9
2018-09-28T00:35:07.591Z,1009.9
2018-09-28T00:36:09.621Z,1009.9
2018-09-28T00:37:11.645Z,1009.9
2018-09-28T00:38:14.371Z,1009.8
2018-09-28T00:39:16.396Z,1009.8
2018-09-28T00:40:18.425Z,1009.9
2018-09-28T00:41:20.467Z,1009.9
2018-09-28T00:42:22.502Z,1009.8
2018-09-28T00:43:24.803Z,1009.8
2018-09-28T00:44:26.839Z,1009.9
2018-09-28T00:45:28.861Z,1009.9
2018-09-28T00:46:30.885Z,1009.9
2018-09-28T00:47:33.204Z,1009.9
2018-09-28T00:48:35.229Z,1009.9
2018-09-28T00:49:37.259Z,1009.9
2018-09-28T00:50:39.288Z,1009.9
2018-09-28T00:51:41.322Z,1009.9
2018-09-28T00:52:43.352Z,1009.9
2018-09-28T00:53:45.376Z,1010
2018-09-28T00:54:47.406Z,1009.9
2018-09-28T00:55:49.437Z,1010
2018-09-28T00:56:51.457Z,1010
2018-09-28T00:57:53.776Z,1010
2018-09-28T00:58:55.805Z,1010
2018-09-28T00:59:57.844Z,1009.9
2018-09-28T01:01:00.149Z,1010
2018-09-28T01:02:02.575Z,1010
2018-09-28T01:03:04.885Z,1009.9
2018-09-28T01:04:06.910Z,1010
2018-09-28T01:05:08.951Z,1009.9
2018-09-28T01:06:10.968Z,1010
2018-09-28T01:07:13.385Z,1010
2018-09-28T01:08:15.417Z,1009.9
2018-09-28T01:09:17.832Z,1009.9
2018-09-28T01:10:20.139Z,1009.9
2018-09-28T01:11:22.170Z,1009.9
2018-09-28T01:12:24.476Z,1009.9
2018-09-28T01:13:26.502Z,1009.9
2018-09-28T01:14:28.549Z,1009.9
2018-09-28T01:15:30.958Z,1009.9
2018-09-28T01:16:32.981Z,1009.9
2018-09-28T01:17:35.017Z,1009.9
2018-09-28T01:18:37.042Z,1009.9
2018-09-28T01:19:39.066Z,1009.8
2018-09-28T01:20:41.407Z,1009.8
2018-09-28T01:21:43.439Z,1009.8
2018-09-28T01:22:45.499Z,1009.8
2018-09-28T01:23:47.527Z,1009.9
2018-09-28T01:24:49.564Z,1009.8
2018-09-28T01:25:51.588Z,1009.8
2018-09-28T01:26:54.011Z,1009.8
2018-09-28T01:27:56.042Z,1009.8
2018-09-28T01:28:58.344Z,1009.8
2018-09-28T01:30:00.391Z,1009.8
2018-09-28T01:31:02.405Z,1009.8
2018-09-28T01:32:04.433Z,1009.8
2018-09-28T01:33:06.457Z,1009.8
2018-09-28T01:34:08.488Z,1009.8
2018-09-28T01:35:10.895Z,1009.9
2018-09-28T01:36:12.928Z,1009.9
2018-09-28T01:37:15.248Z,1009.9
2018-09-28T01:38:17.553Z,1009.9
2018-09-28T01:39:19.591Z,1009.9
2018-09-28T01:40:21.624Z,1009.9
2018-09-28T01:41:23.648Z,1009.8
2018-09-28T01:42:25.681Z,1009.9
2018-09-28T01:43:27.719Z,1009.8
2018-09-28T01:44:30.034Z,1009.9
2018-09-28T01:45:32.067Z,1009.9
2018-09-28T01:46:34.383Z,1009.8
2018-09-28T01:47:36.412Z,1009.9
2018-09-28T01:48:38.432Z,1009.9
2018-09-28T01:49:40.467Z,1009.9
2018-09-28T01:50:42.489Z,1009.9
2018-09-28T01:51:44.526Z,1009.9
2018-09-28T01:52:46.559Z,1009.9
2018-09-28T01:53:48.581Z,1009.9
2018-09-28T01:54:50.621Z,1010
2018-09-28T01:55:52.645Z,1010
2018-09-28T01:56:54.674Z,1010
2018-09-28T01:57:56.696Z,1010
2018-09-28T01:58:59.399Z,1010
2018-09-28T02:00:01.430Z,1010
2018-09-28T02:01:03.467Z,1010
2018-09-28T02:02:05.501Z,1009.9
2018-09-28T02:03:08.206Z,1010
2018-09-28T02:04:10.523Z,1010
2018-09-28T02:05:12.554Z,1010
2018-09-28T02:06:14.591Z,1010
2018-09-28T02:07:16.905Z,1010
2018-09-28T02:08:18.939Z,1010.1
2018-09-28T02:09:20.971Z,1010.1
2018-09-28T02:10:23.004Z,1010
2018-09-28T02:11:25.300Z,1010.1
2018-09-28T02:12:27.369Z,1010.2
2018-09-28T02:13:29.371Z,1010.2
2018-09-28T02:14:31.392Z,1010.1
2018-09-28T02:15:33.427Z,1010.2
2018-09-28T02:16:35.464Z,1010.3
2018-09-28T02:17:37.767Z,1010.3
2018-09-28T02:18:40.209Z,1010.3
2018-09-28T02:19:42.231Z,1010.3
2018-09-28T02:20:44.253Z,1010.3
2018-09-28T02:21:46.282Z,1010.3
2018-09-28T02:22:48.312Z,1010.3
2018-09-28T02:23:50.339Z,1010.4
2018-09-28T02:24:52.649Z,1010.3
2018-09-28T02:25:54.680Z,1010.3
2018-09-28T02:26:56.986Z,1010.4
2018-09-28T02:27:59.028Z,1010.4
2018-09-28T02:29:01.053Z,1010.3
2018-09-28T02:30:03.660Z,1010.3
2018-09-28T02:31:05.682Z,1010.3
2018-09-28T02:32:07.714Z,1010.4
2018-09-28T02:33:09.739Z,1010.4
2018-09-28T02:34:11.766Z,1010.4
2018-09-28T02:35:14.183Z,1010.4
2018-09-28T02:36:16.201Z,1010.4
2018-09-28T02:37:18.241Z,1010.4
2018-09-28T02:38:20.268Z,1010.5
2018-09-28T02:39:22.302Z,1010.5
2018-09-28T02:40:24.608Z,1010.5
2018-09-28T02:41:26.936Z,1010.5
2018-09-28T02:42:28.964Z,1010.5
2018-09-28T02:43:30.985Z,1010.5
2018-09-28T02:44:33.024Z,1010.5
2018-09-28T02:45:35.059Z,1010.5
2018-09-28T02:46:37.089Z,1010.5
2018-09-28T02:47:39.415Z,1010.5
2018-09-28T02:48:41.444Z,1010.5
2018-09-28T02:49:43.861Z,1010.5
2018-09-28T02:50:46.263Z,1010.4
2018-09-28T02:51:48.299Z,1010.5
2018-09-28T02:52:50.332Z,1010.5
2018-09-28T02:53:52.927Z,1010.4
2018-09-28T02:54:54.967Z,1010.4
2018-09-28T02:55:57.010Z,1010.5
2018-09-28T02:56:59.897Z,1010.5
2018-09-28T02:58:01.804Z,1010.5
2018-09-28T02:59:03.836Z,1010.5
2018-09-28T03:00:05.855Z,1010.5
2018-09-28T03:01:07.896Z,1010.5
2018-09-28T03:02:09.922Z,1010.5
2018-09-28T03:03:11.954Z,1010.5
2018-09-28T03:04:14.256Z,1010.5
2018-09-28T03:05:16.582Z,1010.5
2018-09-28T03:06:18.622Z,1010.5
2018-09-28T03:07:21.105Z,1010.5
2018-09-28T03:08:23.425Z,1010.6
2018-09-28T03:09:25.439Z,1010.6
2018-09-28T03:10:28.079Z,1010.5
2018-09-28T03:11:30.526Z,1010.7
2018-09-28T03:12:32.563Z,1010.6
2018-09-28T03:13:34.581Z,1010.6
2018-09-28T03:14:36.894Z,1010.6
2018-09-28T03:15:38.915Z,1010.6
2018-09-28T03:16:41.319Z,1010.7
2018-09-28T03:17:43.663Z,1010.7
2018-09-28T03:18:46.070Z,1010.7
2018-09-28T03:19:48.375Z,1010.7
2018-09-28T03:20:50.417Z,1010.7
2018-09-28T03:21:52.441Z,1010.8
2018-09-28T03:22:54.846Z,1010.8
2018-09-28T03:23:56.875Z,1010.8
2018-09-28T03:24:59.292Z,1010.9
2018-09-28T03:26:01.877Z,1010.8
2018-09-28T03:27:04.576Z,1010.8
2018-09-28T03:28:07.269Z,1010.9
2018-09-28T03:29:09.304Z,1010.8
2018-09-28T03:30:11.709Z,1010.8
2018-09-28T03:31:14.124Z,1010.8
2018-09-28T03:32:16.440Z,1010.8
2018-09-28T03:33:18.753Z,1010.8
2018-09-28T03:34:21.174Z,1010.8
2018-09-28T03:35:23.203Z,1010.9
2018-09-28T03:36:25.228Z,1010.8
2018-09-28T03:37:27.633Z,1010.8
2018-09-28T03:38:29.680Z,1010.9
2018-09-28T03:39:31.999Z,1010.8
2018-09-28T03:40:34.368Z,1010.8
2018-09-28T03:41:36.348Z,1010.8
2018-09-28T03:42:38.646Z,1010.8
2018-09-28T03:43:40.687Z,1010.9
2018-09-28T03:44:42.709Z,1010.9
2018-09-28T03:45:44.744Z,1010.9
2018-09-28T03:46:46.763Z,1010.9
2018-09-28T03:47:48.793Z,1010.9
2018-09-28T03:48:51.105Z,1010.9
2018-09-28T03:49:53.135Z,1011
2018-09-28T03:50:55.175Z,1011
2018-09-28T03:51:57.193Z,1011
2018-09-28T03:52:59.508Z,1011
2018-09-28T03:54:01.544Z,1011
2018-09-28T03:55:03.875Z,1011
2018-09-28T03:56:06.279Z,1011
2018-09-28T03:57:08.313Z,1011
2018-09-28T03:58:10.339Z,1011.1
2018-09-28T03:59:13.066Z,1011
2018-09-28T04:00:15.101Z,1011.1
2018-09-28T04:01:17.126Z,1011
2018-09-28T04:02:19.147Z,1011.1
2018-09-28T04:03:21.184Z,1011.1
2018-09-28T04:04:23.203Z,1011.1
2018-09-28T04:05:25.229Z,1011.2
2018-09-28T04:06:27.840Z,1011.2
2018-09-28T04:07:29.853Z,1011.1
2018-09-28T04:08:31.901Z,1011.2
2018-09-28T04:09:34.509Z,1011.2
2018-09-28T04:10:36.825Z,1011.2
2018-09-28T04:11:38.848Z,1011.2
2018-09-28T04:12:40.877Z,1011.2
2018-09-28T04:13:43.189Z,1011.3
2018-09-28T04:14:45.214Z,1011.3
2018-09-28T04:15:47.249Z,1011.3
2018-09-28T04:16:49.566Z,1011.3
2018-09-28T04:17:51.884Z,1011.3
2018-09-28T04:18:54.285Z,1011.4
2018-09-28T04:19:56.317Z,1011.4
2018-09-28T04:20:58.617Z,1011.4
2018-09-28T04:22:01.072Z,1011.5
2018-09-28T04:23:03.395Z,1011.4
2018-09-28T04:24:05.714Z,1011.4
2018-09-28T04:25:07.750Z,1011.4
2018-09-28T04:26:10.062Z,1011.4
2018-09-28T04:27:12.078Z,1011.5
2018-09-28T04:28:14.872Z,1011.5
2018-09-28T04:29:16.902Z,1011.5
2018-09-28T04:30:18.932Z,1011.5
2018-09-28T04:31:20.958Z,1011.5
2018-09-28T04:32:22.981Z,1011.5
2018-09-28T04:33:25.283Z,1011.5
2018-09-28T04:34:27.311Z,1011.5
2018-09-28T04:35:29.629Z,1011.5
2018-09-28T04:36:31.650Z,1011.6
2018-09-28T04:37:33.683Z,1011.6
2018-09-28T04:38:35.716Z,1011.6
2018-09-28T04:39:38.030Z,1011.6
2018-09-28T04:40:40.041Z,1011.6
2018-09-28T04:41:42.080Z,1011.6
2018-09-28T04:42:44.099Z,1011.7
2018-09-28T04:43:46.128Z,1011.7
2018-09-28T04:44:48.159Z,1011.8
2018-09-28T04:45:50.191Z,1011.7
2018-09-28T04:46:52.211Z,1011.8
2018-09-28T04:47:54.228Z,1011.8
2018-09-28T04:48:56.545Z,1011.8
2018-09-28T04:49:58.557Z,1011.8
2018-09-28T04:51:00.582Z,1011.8
2018-09-28T04:52:02.988Z,1011.8
2018-09-28T04:53:05.017Z,1011.8
2018-09-28T04:54:07.039Z,1012
2018-09-28T04:55:09.067Z,1011.9
2018-09-28T04:56:11.100Z,1012
2018-09-28T04:57:13.390Z,1012
2018-09-28T04:58:15.432Z,1012
2018-09-28T04:59:17.450Z,1012
2018-09-28T05:00:19.468Z,1012
2018-09-28T05:01:21.492Z,1012
2018-09-28T05:02:23.526Z,1012
2018-09-28T05:03:25.544Z,1012
2018-09-28T05:04:27.572Z,1012.1
2018-09-28T05:05:29.991Z,1012.1
2018-09-28T05:06:32.008Z,1012.1
2018-09-28T05:07:34.701Z,1012.1
2018-09-28T05:08:36.735Z,1012.1
2018-09-28T05:09:38.751Z,1012.2
2018-09-28T05:10:40.779Z,1012.2
2018-09-28T05:11:43.211Z,1012.2
2018-09-28T05:12:45.888Z,1012.2
2018-09-28T05:13:48.307Z,1012.3
2018-09-28T05:14:50.328Z,1012.3
2018-09-28T05:15:52.349Z,1012.3
2018-09-28T05:16:54.370Z,1012.3
2018-09-28T05:17:56.397Z,1012.2
2018-09-28T05:18:58.420Z,1012.2
2018-09-28T05:20:00.447Z,1012.2
2018-09-28T05:21:02.769Z,1012.2
2018-09-28T05:22:04.803Z,1012.3
2018-09-28T05:23:06.817Z,1012.3
2018-09-28T05:24:09.225Z,1012.3
2018-09-28T05:25:11.575Z,1012.3
2018-09-28T05:26:13.916Z,1012.4
2018-09-28T05:27:16.222Z,1012.4
2018-09-28T05:28:18.254Z,1012.4
2018-09-28T05:29:20.572Z,1012.4
2018-09-28T05:30:22.587Z,1012.4
2018-09-28T05:31:24.729Z,1012.4
2018-09-28T05:32:26.828Z,1012.5
2018-09-28T05:33:29.178Z,1012.4
2018-09-28T05:34:31.202Z,1012.5
2018-09-28T05:35:33.230Z,1012.4
2018-09-28T05:36:35.252Z,1012.5
2018-09-28T05:37:37.281Z,1012.4
2018-09-28T05:38:39.304Z,1012.4
2018-09-28T05:39:41.318Z,1012.5
2018-09-28T05:40:43.345Z,1012.5
2018-09-28T05:41:45.376Z,1012.5
2018-09-28T05:42:47.778Z,1012.6
2018-09-28T05:43:49.814Z,1012.6
2018-09-28T05:44:52.243Z,1012.6
2018-09-28T05:45:54.551Z,1012.6
2018-09-28T05:46:56.585Z,1012.6
2018-09-28T05:47:58.612Z,1012.6
2018-09-28T05:49:00.920Z,1012.7
2018-09-28T05:50:02.940Z,1012.7
2018-09-28T05:51:04.967Z,1012.7
2018-09-28T05:52:06.989Z,1012.8
2018-09-28T05:53:09.014Z,1012.7
2018-09-28T05:54:11.045Z,1012.8
2018-09-28T05:55:13.067Z,1012.8
2018-09-28T05:56:15.081Z,1012.8
2018-09-28T05:57:17.106Z,1012.8
2018-09-28T05:58:19.135Z,1012.7
2018-09-28T05:59:21.175Z,1012.8
2018-09-28T06:00:23.194Z,1012.8
2018-09-28T06:01:25.224Z,1012.8
2018-09-28T06:02:27.543Z,1012.8
2018-09-28T06:03:29.563Z,1012.8
2018-09-28T06:04:31.601Z,1012.8
2018-09-28T06:05:33.706Z,1012.9
2018-09-28T06:06:35.645Z,1012.8
2018-09-28T06:07:38.061Z,1012.8
2018-09-28T06:08:40.092Z,1012.9
2018-09-28T06:09:42.111Z,1012.8
2018-09-28T06:10:44.144Z,1012.9
2018-09-28T06:11:46.167Z,1012.9
2018-09-28T06:12:48.183Z,1012.9
2018-09-28T06:13:50.206Z,1013
2018-09-28T06:14:52.243Z,1012.9
2018-09-28T06:15:54.564Z,1013
2018-09-28T06:16:56.874Z,1012.9
2018-09-28T06:17:58.919Z,1013
2018-09-28T06:19:01.311Z,1012.9
2018-09-28T06:20:03.781Z,1012.9
2018-09-28T06:21:05.802Z,1013
2018-09-28T06:22:09.157Z,1013
2018-09-28T06:23:11.176Z,1013
2018-09-28T06:24:13.277Z,1013
2018-09-28T06:25:15.225Z,1013
2018-09-28T06:26:18.507Z,1013
2018-09-28T06:27:20.828Z,1012.9
2018-09-28T06:28:23.229Z,1013
2018-09-28T06:29:25.267Z,1013.1
2018-09-28T06:30:27.675Z,1013.1
2018-09-28T06:31:29.706Z,1013.1
2018-09-28T06:32:31.725Z,1013.1
2018-09-28T06:33:33.753Z,1013.1
2018-09-28T06:34:35.782Z,1013.2
2018-09-28T06:35:38.147Z,1013.2
2018-09-28T06:36:40.473Z,1013.2
2018-09-28T06:37:42.491Z,1013.2
2018-09-28T06:38:44.797Z,1013.2
2018-09-28T06:39:46.830Z,1013.3
2018-09-28T06:40:48.871Z,1013.2
2018-09-28T06:41:51.341Z,1013.3
2018-09-28T06:42:53.296Z,1013.3
2018-09-28T06:43:56.003Z,1013.3
2018-09-28T06:44:58.027Z,1013.3
2018-09-28T06:46:00.072Z,1013.3
2018-09-28T06:47:02.093Z,1013.3
2018-09-28T06:48:04.133Z,1013.3
2018-09-28T06:49:06.145Z,1013.4
2018-09-28T06:50:08.162Z,1013.4
2018-09-28T06:51:10.227Z,1013.4
2018-09-28T06:52:12.210Z,1013.5
2018-09-28T06:53:14.229Z,1013.5
2018-09-28T06:54:16.324Z,1013.5
2018-09-28T06:55:18.283Z,1013.5
2018-09-28T06:56:20.318Z,1013.5
2018-09-28T06:57:22.339Z,1013.5
2018-09-28T06:58:24.367Z,1013.5
2018-09-28T06:59:26.392Z,1013.5
2018-09-28T07:00:28.409Z,1013.5
2018-09-28T07:01:30.443Z,1013.5
2018-09-28T07:02:32.458Z,1013.5
2018-09-28T07:03:34.489Z,1013.5
2018-09-28T07:04:36.509Z,1013.5
2018-09-28T07:05:38.573Z,1013.5
2018-09-28T07:06:40.559Z,1013.6
2018-09-28T07:07:42.591Z,1013.6
2018-09-28T07:08:44.623Z,1013.5
2018-09-28T07:09:47.021Z,1013.6
2018-09-28T07:10:49.435Z,1013.6
2018-09-28T07:11:51.517Z,1013.6
2018-09-28T07:12:53.549Z,1013.7
2018-09-28T07:13:55.837Z,1013.7
2018-09-28T07:14:58.142Z,1013.7
2018-09-28T07:16:00.175Z,1013.7
2018-09-28T07:17:02.193Z,1013.7
2018-09-28T07:18:04.243Z,1013.7
2018-09-28T07:19:06.259Z,1013.7
2018-09-28T07:20:08.358Z,1013.7
2018-09-28T07:21:10.304Z,1013.8
2018-09-28T07:22:12.616Z,1013.8
2018-09-28T07:23:14.637Z,1013.8
2018-09-28T07:24:16.738Z,1013.8
2018-09-28T07:25:18.704Z,1013.8
2018-09-28T07:26:21.093Z,1013.8
2018-09-28T07:27:23.125Z,1013.8
2018-09-28T07:28:25.149Z,1013.8
2018-09-28T07:29:27.176Z,1013.8
2018-09-28T07:30:29.199Z,1013.8
2018-09-28T07:31:31.231Z,1013.9
2018-09-28T07:32:33.255Z,1013.8
2018-09-28T07:33:35.278Z,1013.9
2018-09-28T07:34:37.599Z,1013.9
2018-09-28T07:35:39.910Z,1014
2018-09-28T07:36:42.133Z,1014
2018-09-28T07:37:43.948Z,1014
2018-09-28T07:38:45.978Z,1014
2018-09-28T07:39:47.998Z,1014
2018-09-28T07:40:50.317Z,1014
2018-09-28T07:41:52.384Z,1014
2018-09-28T07:42:55.151Z,1013.9
2018-09-28T07:43:57.187Z,1013.9
2018-09-28T07:44:59.215Z,1014
2018-09-28T07:46:01.807Z,1014
2018-09-28T07:47:04.222Z,1014
2018-09-28T07:48:06.589Z,1014.1
2018-09-28T07:49:08.572Z,1014.1
2018-09-28T07:50:10.583Z,1014.1
2018-09-28T07:51:12.612Z,1014
2018-09-28T07:52:14.654Z,1014.1
2018-09-28T07:53:16.673Z,1014.1
2018-09-28T07:54:18.701Z,1014.2
2018-09-28T07:55:20.729Z,1014.1
2018-09-28T07:56:22.754Z,1014.1
2018-09-28T07:57:24.779Z,1014.2
2018-09-28T07:58:26.813Z,1014.2
2018-09-28T07:59:28.828Z,1014.2
2018-09-28T08:00:31.248Z,1014.2
2018-09-28T08:01:33.565Z,1014.1
2018-09-28T08:02:35.881Z,1014.2
2018-09-28T08:03:38.216Z,1014.2
2018-09-28T08:04:40.253Z,1014.2
2018-09-28T08:05:42.285Z,1014.2
2018-09-28T08:06:44.310Z,1014.3
2018-09-28T08:07:46.348Z,1014.3
2018-09-28T08:08:48.368Z,1014.2
2018-09-28T08:09:50.400Z,1014.2
2018-09-28T08:10:52.423Z,1014.3
2018-09-28T08:11:54.458Z,1014.2
2018-09-28T08:12:56.485Z,1014.3
2018-09-28T08:13:58.523Z,1014.3
2018-09-28T08:15:00.557Z,1014.3
2018-09-28T08:16:02.884Z,1014.3
2018-09-28T08:17:04.923Z,1014.3
2018-09-28T08:18:06.963Z,1014.4
2018-09-28T08:19:08.985Z,1014.4
2018-09-28T08:20:11.017Z,1014.4
2018-09-28T08:21:13.442Z,1014.4
2018-09-28T08:22:16.041Z,1014.5
2018-09-28T08:23:18.096Z,1014.4
2018-09-28T08:24:20.433Z,1014.5
2018-09-28T08:25:22.835Z,1014.5
2018-09-28T08:26:24.863Z,1014.4
2018-09-28T08:27:26.889Z,1014.5
2018-09-28T08:28:28.923Z,1014.5
2018-09-28T08:29:31.519Z,1014.5
2018-09-28T08:30:33.590Z,1014.6
2018-09-28T08:31:35.925Z,1014.5
2018-09-28T08:32:37.946Z,1014.5
2018-09-28T08:33:39.980Z,1014.6
2018-09-28T08:34:42.011Z,1014.5
2018-09-28T08:35:44.047Z,1014.5
2018-09-28T08:36:46.465Z,1014.5
2018-09-28T08:37:49.170Z,1014.6
2018-09-28T08:38:51.199Z,1014.6
2018-09-28T08:39:53.513Z,1014.6
2018-09-28T08:40:55.559Z,1014.6
2018-09-28T08:41:57.734Z,1014.6
2018-09-28T08:42:59.897Z,1014.6
2018-09-28T08:44:01.924Z,1014.6
2018-09-28T08:45:03.969Z,1014.6
2018-09-28T08:46:06.287Z,1014.6
2018-09-28T08:47:08.322Z,1014.7
2018-09-28T08:48:10.637Z,1014.7
2018-09-28T08:49:12.718Z,1014.7
2018-09-28T08:50:15.060Z,1014.7
2018-09-28T08:51:17.098Z,1014.7
2018-09-28T08:52:19.125Z,1014.7
2018-09-28T08:53:21.443Z,1014.7
2018-09-28T08:54:23.480Z,1014.6
2018-09-28T08:55:25.510Z,1014.7
2018-09-28T08:56:27.542Z,1014.8
2018-09-28T08:57:29.574Z,1014.8
2018-09-28T08:58:31.892Z,1014.8
2018-09-28T08:59:34.227Z,1014.8
2018-09-28T09:00:36.555Z,1014.8
2018-09-28T09:01:39.164Z,1014.8
2018-09-28T09:02:41.490Z,1014.8
2018-09-28T09:03:43.529Z,1014.8
2018-09-28T09:04:45.559Z,1014.9
2018-09-28T09:05:47.603Z,1014.8
2018-09-28T09:06:49.630Z,1014.9
2018-09-28T09:07:52.048Z,1014.9
2018-09-28T09:08:54.367Z,1014.9
2018-09-28T09:09:56.408Z,1014.9
2018-09-28T09:10:58.436Z,1014.9
2018-09-28T09:12:00.470Z,1014.9
2018-09-28T09:13:03.096Z,1014.9
2018-09-28T09:14:06.074Z,1014.9
2018-09-28T09:15:08.403Z,1014.9
2018-09-28T09:16:10.436Z,1014.9
2018-09-28T09:17:12.781Z,1014.8
2018-09-28T09:18:15.208Z,1014.9
2018-09-28T09:19:17.165Z,1014.9
2018-09-28T09:20:19.191Z,1014.9
2018-09-28T09:21:21.216Z,1014.9
2018-09-28T09:22:23.258Z,1015
2018-09-28T09:23:25.283Z,1015
2018-09-28T09:24:27.319Z,1014.9
2018-09-28T09:25:29.361Z,1014.9
2018-09-28T09:26:31.683Z,1015
2018-09-28T09:27:33.713Z,1015
2018-09-28T09:28:36.136Z,1014.9
2018-09-28T09:29:38.164Z,1015
2018-09-28T09:30:40.199Z,1014.9
2018-09-28T09:31:42.528Z,1015
2018-09-28T09:32:44.566Z,1015
2018-09-28T09:33:46.598Z,1015
2018-09-28T09:34:48.634Z,1015
2018-09-28T09:35:50.664Z,1015.1
2018-09-28T09:36:52.692Z,1015
2018-09-28T09:37:54.739Z,1015
2018-09-28T09:38:56.762Z,1015
2018-09-28T09:39:59.087Z,1015.1
2018-09-28T09:41:01.118Z,1015.1
2018-09-28T09:42:03.159Z,1015.1
2018-09-28T09:43:05.195Z,1015.1
2018-09-28T09:44:07.226Z,1015.1
2018-09-28T09:45:09.549Z,1015
2018-09-28T09:46:11.592Z,1015.1
2018-09-28T09:47:13.619Z,1015
2018-09-28T09:48:15.667Z,1015
2018-09-28T09:49:17.699Z,1015
2018-09-28T09:50:20.048Z,1015
2018-09-28T09:51:22.078Z,1015
2018-09-28T09:52:24.120Z,1015.1
2018-09-28T09:53:26.145Z,1015.1
2018-09-28T09:54:28.178Z,1015.1
2018-09-28T09:55:30.514Z,1015.2
2018-09-28T09:56:32.544Z,1015.1
2018-09-28T09:57:34.629Z,1015.1
2018-09-28T09:58:36.626Z,1015.2
2018-09-28T09:59:38.663Z,1015
2018-09-28T10:00:40.982Z,1015.1
2018-09-28T10:01:43.317Z,1015.1
2018-09-28T10:02:45.349Z,1015.1
2018-09-28T10:03:47.385Z,1015
2018-09-28T10:04:49.817Z,1015.2
2018-09-28T10:05:52.236Z,1015.1
2018-09-28T10:06:54.264Z,1015
2018-09-28T10:07:56.305Z,1015
2018-09-28T10:08:58.339Z,1015.1
2018-09-28T10:10:00.411Z,1015.1
2018-09-28T10:11:02.408Z,1015
2018-09-28T10:12:04.437Z,1015.1
2018-09-28T10:13:06.751Z,1015
2018-09-28T10:14:08.799Z,1015
2018-09-28T10:15:11.116Z,1015
2018-09-28T10:16:13.146Z,1015
2018-09-28T10:17:15.191Z,1015
2018-09-28T10:18:17.904Z,1015
2018-09-28T10:19:19.948Z,1015
2018-09-28T10:20:22.430Z,1015
2018-09-28T10:21:24.860Z,1015
2018-09-28T10:22:26.894Z,1015
2018-09-28T10:23:28.932Z,1015.1
2018-09-28T10:24:31.247Z,1015.1
2018-09-28T10:25:33.678Z,1015.1
2018-09-28T10:26:35.993Z,1015
2018-09-28T10:27:38.389Z,1015.1
2018-09-28T10:28:41.268Z,1015.1
2018-09-28T10:29:43.201Z,1015.1
2018-09-28T10:30:45.233Z,1015.2
2018-09-28T10:31:47.273Z,1015.2
2018-09-28T10:32:49.308Z,1015.2
2018-09-28T10:33:51.338Z,1015.1
2018-09-28T10:34:53.380Z,1015.1
2018-09-28T10:35:55.411Z,1015.1
2018-09-28T10:36:57.445Z,1015.1
2018-09-28T10:37:59.489Z,1015.1
2018-09-28T10:39:01.523Z,1015.2
2018-09-28T10:40:03.839Z,1015.2
2018-09-28T10:41:06.255Z,1015.2
2018-09-28T10:42:08.549Z,1015.2
2018-09-28T10:43:10.579Z,1015.2
2018-09-28T10:44:12.617Z,1015.2
2018-09-28T10:45:15.036Z,1015.2
2018-09-28T10:46:17.069Z,1015.2
2018-09-28T10:47:19.102Z,1015.2
2018-09-28T10:48:21.138Z,1015.2
2018-09-28T10:49:23.186Z,1015.2
2018-09-28T10:50:25.207Z,1015.2
2018-09-28T10:51:27.680Z,1015.2
2018-09-28T10:52:30.185Z,1015.2
2018-09-28T10:53:32.128Z,1015.2
2018-09-28T10:54:34.151Z,1015.2
2018-09-28T10:55:36.476Z,1015.3
2018-09-28T10:56:38.510Z,1015.2
2018-09-28T10:57:41.143Z,1015.2
2018-09-28T10:58:43.606Z,1015.2
2018-09-28T10:59:45.589Z,1015.2
2018-09-28T11:00:47.616Z,1015.2
2018-09-28T11:01:49.674Z,1015.3
2018-09-28T11:02:51.688Z,1015.2
2018-09-28T11:03:53.726Z,1015.3
2018-09-28T11:04:55.766Z,1015.3
2018-09-28T11:05:57.826Z,1015.3
2018-09-28T11:06:59.826Z,1015.3
2018-09-28T11:08:01.871Z,1015.3
2018-09-28T11:09:04.184Z,1015.3
2018-09-28T11:10:06.277Z,1015.4
2018-09-28T11:11:08.267Z,1015.3
2018-09-28T11:12:10.692Z,1015.3
2018-09-28T11:13:13.000Z,1015.3
2018-09-28T11:14:15.038Z,1015.3
2018-09-28T11:15:17.089Z,1015.3
2018-09-28T11:16:19.468Z,1015.3
2018-09-28T11:17:21.503Z,1015.3
2018-09-28T11:18:23.527Z,1015.3
2018-09-28T11:19:25.568Z,1015.2
2018-09-28T11:20:27.606Z,1015.2
2018-09-28T11:21:29.661Z,1015.2
2018-09-28T11:22:31.677Z,1015.2
2018-09-28T11:23:33.720Z,1015.2
2018-09-28T11:24:35.756Z,1015.2
2018-09-28T11:25:37.787Z,1015.2
2018-09-28T11:26:40.219Z,1015.3
2018-09-28T11:27:42.298Z,1015.3
2018-09-28T11:28:44.670Z,1015.3
2018-09-28T11:29:47.089Z,1015.3
2018-09-28T11:30:49.130Z,1015.3
2018-09-28T11:31:51.445Z,1015.3
2018-09-28T11:32:53.486Z,1015.3
2018-09-28T11:33:55.537Z,1015.4
2018-09-28T11:34:57.582Z,1015.5
2018-09-28T11:35:59.665Z,1015.3
2018-09-28T11:37:01.989Z,1015.3
2018-09-28T11:38:04.018Z,1015.4
2018-09-28T11:39:06.054Z,1015.4
2018-09-28T11:40:08.496Z,1015.4
2018-09-28T11:41:10.525Z,1015.4
2018-09-28T11:42:12.568Z,1015.4
2018-09-28T11:43:14.637Z,1015.5
2018-09-28T11:44:17.078Z,1015.4
2018-09-28T11:45:19.167Z,1015.5
2018-09-28T11:46:21.518Z,1015.3
2018-09-28T11:47:23.550Z,1015.3
2018-09-28T11:48:25.593Z,1015.3
2018-09-28T11:49:27.660Z,1015.4
2018-09-28T11:50:29.970Z,1015.4
2018-09-28T11:51:32.382Z,1015.4
2018-09-28T11:52:34.710Z,1015.4
2018-09-28T11:53:36.749Z,1015.4
2018-09-28T11:54:38.781Z,1015.4
2018-09-28T11:55:41.111Z,1015.4
2018-09-28T11:56:43.142Z,1015.5
2018-09-28T11:57:46.084Z,1015.5
2018-09-28T11:58:48.030Z,1015.3
2018-09-28T11:59:50.108Z,1015.4
2018-09-28T12:00:52.153Z,1015.4
2018-09-28T12:01:54.470Z,1015.4
2018-09-28T12:02:56.514Z,1015.4
2018-09-28T12:03:58.829Z,1015.5
2018-09-28T12:05:00.877Z,1015.5
2018-09-28T12:06:03.619Z,1015.4
2018-09-28T12:07:06.114Z,1015.4
2018-09-28T12:08:08.893Z,1015.4
2018-09-28T12:09:11.236Z,1015.5
2018-09-28T12:10:13.244Z,1015.5
2018-09-28T12:11:15.601Z,1015.4
2018-09-28T12:12:17.973Z,1015.4
2018-09-28T12:13:19.992Z,1015.5
2018-09-28T12:14:21.982Z,1015.4
2018-09-28T12:15:24.489Z,1015.5
2018-09-28T12:16:26.462Z,1015.5
2018-09-28T12:17:28.488Z,1015.5
2018-09-28T12:18:30.526Z,1015.5
2018-09-28T12:19:32.563Z,1015.5
2018-09-28T12:20:34.592Z,1015.5
2018-09-28T12:21:37.041Z,1015.5
2018-09-28T12:22:39.063Z,1015.5
2018-09-28T12:23:41.385Z,1015.5
2018-09-28T12:24:43.437Z,1015.5
2018-09-28T12:25:45.988Z,1015.5
2018-09-28T12:26:49.009Z,1015.3
2018-09-28T12:27:51.886Z,1015.5
2018-09-28T12:28:53.811Z,1015.5
2018-09-28T12:29:55.840Z,1015.5
2018-09-28T12:30:57.878Z,1015.6
2018-09-28T12:32:00.596Z,1015.5
2018-09-28T12:33:02.625Z,1015.5
2018-09-28T12:34:04.682Z,1015.5
2018-09-28T12:35:07.314Z,1015.5
2018-09-28T12:36:09.392Z,1015.5
2018-09-28T12:37:11.383Z,1015.5
2018-09-28T12:38:13.709Z,1015.6
2018-09-28T12:39:16.244Z,1015.5
2018-09-28T12:40:18.154Z,1015.5
2018-09-28T12:41:20.198Z,1015.4
2018-09-28T12:42:22.676Z,1015.5
2018-09-28T12:43:25.138Z,1015.5
2018-09-28T12:44:27.264Z,1015.6
2018-09-28T12:45:30.251Z,1015.6
2018-09-28T12:46:32.258Z,1015.5
2018-09-28T12:47:34.686Z,1015.5
2018-09-28T12:48:36.775Z,1015.6
2018-09-28T12:49:38.752Z,1015.6
2018-09-28T12:50:40.848Z,1015.7
2018-09-28T12:51:42.842Z,1015.6
2018-09-28T12:52:44.890Z,1015.6
2018-09-28T12:53:47.606Z,1015.6
2018-09-28T12:54:49.611Z,1015.6
2018-09-28T12:55:51.564Z,1015.6
2018-09-28T12:56:53.879Z,1015.7
2018-09-28T12:57:55.924Z,1015.6
2018-09-28T12:58:57.952Z,1015.6
2018-09-28T12:59:59.990Z,1015.6
2018-09-28T13:01:02.213Z,1015.6
2018-09-28T13:02:04.671Z,1015.6
2018-09-28T13:03:07.088Z,1015.6